Time;durP1;ratioP1;P1;durP2;ratioP2;P2;SDS_P1;SDS_P2;PMS_P1;PMS_P2;Temp;Humidity;BMP_temperature;BMP_pressure;BME280_temperature;BME280_humidity;BME280_pressure;Samples;Min_cycle;Max_cycle;Signal;HPM_P1;HPM_P2
2021/06/11 00:01:56;;;;;;;7.45;6.75;;;17.50;94.60;;;;;;4957845;28;20019;-69
2021/06/11 00:04:22;;;;;;;7.00;6.30;;;17.50;94.70;;;;;;4958558;28;20053;-68
2021/06/11 00:06:47;;;;;;;7.63;6.82;;;17.40;94.70;;;;;;4958865;28;20035;-64
2021/06/11 00:09:14;;;;;;;7.18;6.07;;;17.40;94.90;;;;;;4976636;28;20146;-65
2021/06/11 00:11:44;;;;;;;8.43;6.22;;;17.30;95.00;;;;;;4975877;28;20081;-64
2021/06/11 00:14:10;;;;;;;8.27;6.45;;;17.30;95.00;;;;;;4976367;28;20085;-66
2021/06/11 00:16:36;;;;;;;7.75;6.45;;;17.30;95.10;;;;;;4976288;28;20031;-64
2021/06/11 00:19:01;;;;;;;6.95;6.35;;;17.20;95.10;;;;;;4975451;28;20023;-68
2021/06/11 00:21:27;;;;;;;6.43;5.80;;;17.20;95.20;;;;;;4976151;28;20030;-69
2021/06/11 00:23:53;;;;;;;6.85;5.88;;;17.20;95.30;;;;;;4975380;28;20430;-65
2021/06/11 00:26:19;;;;;;;6.82;5.95;;;17.20;95.40;;;;;;4976267;28;20026;-65
2021/06/11 00:28:44;;;;;;;7.68;5.80;;;17.10;95.40;;;;;;4958739;28;20376;-64
2021/06/11 00:31:10;;;;;;;6.32;5.70;;;17.10;95.40;;;;;;4958327;28;20023;-67
2021/06/11 00:33:36;;;;;;;8.05;6.05;;;17.10;95.60;;;;;;4976011;28;20499;-65
2021/06/11 00:36:01;;;;;;;5.97;5.30;;;17.00;95.50;;;;;;4975592;28;20369;-65
2021/06/11 00:38:27;;;;;;;6.57;5.93;;;17.00;95.60;;;;;;4958135;28;20033;-67
2021/06/11 00:40:52;;;;;;;8.40;7.10;;;17.00;95.70;;;;;;4958405;28;20029;-65
2021/06/11 00:43:18;;;;;;;10.18;7.03;;;17.00;95.70;;;;;;4975843;28;20062;-64
2021/06/11 00:45:44;;;;;;;9.30;6.50;;;16.90;95.90;;;;;;4974886;28;20030;-65
2021/06/11 00:48:11;;;;;;;7.07;6.35;;;16.90;96.00;;;;;;4975972;28;20033;-64
2021/06/11 00:50:38;;;;;;;6.70;6.10;;;17.00;96.00;;;;;;4975824;28;20034;-65
2021/06/11 00:53:07;;;;;;;7.85;7.05;;;17.00;96.00;;;;;;4974680;28;20026;-64
2021/06/11 00:55:32;;;;;;;7.30;6.07;;;17.00;96.00;;;;;;4958357;28;20055;-65
2021/06/11 00:57:58;;;;;;;7.00;6.32;;;17.00;96.10;;;;;;4975350;28;20058;-65
2021/06/11 01:00:24;;;;;;;7.47;6.78;;;17.00;96.00;;;;;;4975001;28;20065;-67
2021/06/11 01:02:50;;;;;;;7.20;6.50;;;17.00;96.10;;;;;;4975297;28;20436;-68
2021/06/11 01:05:16;;;;;;;7.90;6.30;;;16.90;96.10;;;;;;4975345;28;20066;-64
2021/06/11 01:07:44;;;;;;;7.00;6.30;;;16.90;96.20;;;;;;4974822;28;20015;-64
2021/06/11 01:10:10;;;;;;;8.40;5.93;;;16.90;96.20;;;;;;4975535;28;20033;-65
2021/06/11 01:12:37;;;;;;;7.57;5.72;;;16.90;96.20;;;;;;4957073;28;20026;-64
2021/06/11 01:15:05;;;;;;;7.05;6.32;;;16.90;96.20;;;;;;4974154;28;20034;-65
2021/06/11 01:17:34;;;;;;;7.00;6.13;;;16.80;96.30;;;;;;4975286;28;20042;-72
2021/06/11 01:20:02;;;;;;;7.88;5.78;;;16.80;96.30;;;;;;4975034;28;20098;-68
2021/06/11 01:23:07;;;;;;;6.63;5.68;;;16.80;96.30;;;;;;4974505;28;20113;-68
2021/06/11 01:25:42;;;;;;;6.72;5.95;;;16.80;96.40;;;;;;4975241;28;20038;-68
2021/06/11 01:28:10;;;;;;;8.80;6.30;;;16.70;96.40;;;;;;4974240;28;20038;-68
2021/06/11 01:30:36;;;;;;;7.07;6.38;;;16.70;96.40;;;;;;4975016;28;20019;-65
2021/06/11 01:33:03;;;;;;;7.18;6.47;;;16.70;96.50;;;;;;4974693;28;20031;-65
2021/06/11 01:35:43;;;;;;;6.50;5.90;;;16.60;96.50;;;;;;4974288;28;20439;-68
2021/06/11 01:38:13;;;;;;;6.45;5.70;;;16.70;96.70;;;;;;4975390;28;20419;-64
2021/06/11 01:40:41;;;;;;;6.80;6.20;;;16.70;96.60;;;;;;4957900;28;20047;-70
2021/06/11 01:43:07;;;;;;;6.95;6.25;;;16.80;96.60;;;;;;4973845;28;20479;-68
2021/06/11 01:45:33;;;;;;;7.18;6.47;;;16.80;96.60;;;;;;4974525;28;20034;-71
2021/06/11 01:48:00;;;;;;;6.88;6.22;;;16.80;96.70;;;;;;4962258;28;20066;-65
2021/06/11 01:50:31;;;;;;;7.28;6.57;;;16.70;96.60;;;;;;4963281;28;20531;-67
2021/06/11 01:52:58;;;;;;;9.43;6.20;;;16.70;96.70;;;;;;4966485;28;20034;-66
2021/06/11 01:55:27;;;;;;;7.15;6.40;;;16.70;96.70;;;;;;4960014;28;20380;-68
2021/06/11 01:57:54;;;;;;;7.22;6.53;;;16.70;96.70;;;;;;4964182;28;21585;-63
2021/06/11 02:00:20;;;;;;;6.80;6.10;;;16.60;96.70;;;;;;4966592;28;20077;-65
2021/06/11 02:02:46;;;;;;;6.65;6.03;;;16.60;96.70;;;;;;4962472;28;20423;-63
2021/06/11 02:05:13;;;;;;;8.73;7.05;;;16.50;96.90;;;;;;4959577;28;20555;-67
2021/06/11 02:07:41;;;;;;;8.50;5.95;;;16.50;96.90;;;;;;4965242;28;20391;-63
2021/06/11 02:10:09;;;;;;;7.15;6.43;;;16.50;97.00;;;;;;4950653;28;20492;-63
2021/06/11 02:12:34;;;;;;;7.25;6.55;;;16.50;97.10;;;;;;4954881;29;20023;-64
2021/06/11 02:15:03;;;;;;;7.30;6.60;;;16.50;97.10;;;;;;4954326;29;20043;-79
2021/06/11 02:17:30;;;;;;;7.43;6.45;;;16.40;97.10;;;;;;4954137;29;20535;-76
2021/06/11 02:19:57;;;;;;;7.13;6.32;;;16.50;97.20;;;;;;4954590;29;20022;-65
2021/06/11 02:22:23;;;;;;;6.70;6.00;;;16.50;97.20;;;;;;4954836;29;20166;-64
2021/06/11 02:24:49;;;;;;;8.88;6.38;;;16.50;97.20;;;;;;4953570;28;20046;-64
2021/06/11 02:27:15;;;;;;;7.93;7.13;;;16.60;97.20;;;;;;4954796;29;20023;-66
2021/06/11 02:29:41;;;;;;;8.93;7.90;;;16.60;97.30;;;;;;4954591;29;20031;-66
2021/06/11 02:32:07;;;;;;;8.13;7.30;;;16.60;97.40;;;;;;4953761;29;20026;-71
2021/06/11 02:34:33;;;;;;;10.25;6.80;;;16.60;97.30;;;;;;4954511;29;20028;-72
2021/06/11 02:36:59;;;;;;;8.82;7.97;;;16.70;97.40;;;;;;4954283;29;20033;-64
2021/06/11 02:39:25;;;;;;;9.77;8.75;;;16.60;97.40;;;;;;4953933;29;20026;-63
2021/06/11 02:41:59;;;;;;;9.93;9.02;;;16.70;97.50;;;;;;4954344;29;20027;-64
2021/06/11 02:44:29;;;;;;;10.15;9.07;;;16.70;97.60;;;;;;4954333;29;20035;-64
2021/06/11 02:47:08;;;;;;;11.23;8.90;;;16.70;97.40;;;;;;4954468;29;20036;-64
2021/06/11 02:49:47;;;;;;;9.65;8.65;;;16.70;97.40;;;;;;4954774;29;20098;-65
2021/06/11 02:52:14;;;;;;;9.85;8.85;;;16.70;97.40;;;;;;4953636;29;20181;-67
2021/06/11 02:54:44;;;;;;;9.68;8.77;;;16.70;97.30;;;;;;4954178;29;20038;-64
2021/06/11 02:57:17;;;;;;;9.60;8.60;;;16.60;97.30;;;;;;4937094;29;20051;-66
2021/06/11 02:59:48;;;;;;;9.73;8.40;;;16.60;97.30;;;;;;4953660;29;20035;-64
2021/06/11 03:02:26;;;;;;;11.95;10.75;;;16.60;97.30;;;;;;4954318;29;20019;-65
2021/06/11 03:04:54;;;;;;;10.68;9.65;;;16.50;97.40;;;;;;4954014;29;20031;-74
2021/06/11 03:07:29;;;;;;;11.77;10.43;;;16.50;97.40;;;;;;4953550;29;20090;-64
2021/06/11 03:10:02;;;;;;;13.52;12.20;;;16.40;97.40;;;;;;4936671;29;20027;-66
2021/06/11 03:12:30;;;;;;;14.80;12.60;;;16.40;97.40;;;;;;4954211;29;20023;-64
2021/06/11 03:14:55;;;;;;;14.23;12.20;;;16.40;97.50;;;;;;4953078;29;20492;-64
2021/06/11 03:17:27;;;;;;;14.07;12.70;;;16.40;97.50;;;;;;4954212;29;20110;-67
2021/06/11 03:19:57;;;;;;;14.90;13.40;;;16.40;97.50;;;;;;4935950;29;20432;-66
2021/06/11 03:22:31;;;;;;;15.00;13.40;;;16.40;97.40;;;;;;4954309;29;20426;-66
2021/06/11 03:25:04;;;;;;;14.00;12.70;;;16.30;97.40;;;;;;4953660;29;20031;-68
2021/06/11 03:27:39;;;;;;;18.15;14.02;;;16.30;97.50;;;;;;4953398;29;20059;-65
2021/06/11 03:30:09;;;;;;;14.50;12.85;;;16.30;97.50;;;;;;4953811;29;20023;-63
2021/06/11 03:32:47;;;;;;;14.32;13.00;;;16.20;97.50;;;;;;4953863;29;20015;-65
2021/06/11 03:35:17;;;;;;;14.13;12.73;;;16.20;97.70;;;;;;4936054;29;20028;-64
2021/06/11 03:37:47;;;;;;;15.60;13.18;;;16.10;97.60;;;;;;4957841;29;20101;-68
2021/06/11 03:40:16;;;;;;;16.20;13.18;;;16.10;97.70;;;;;;4940559;29;20106;-65
2021/06/11 03:42:42;;;;;;;14.13;12.30;;;16.10;97.80;;;;;;4957094;28;20031;-70
2021/06/11 03:45:09;;;;;;;14.45;12.93;;;16.10;97.80;;;;;;4964017;28;20118;-65
2021/06/11 03:47:38;;;;;;;16.17;14.57;;;16.10;97.90;;;;;;4960786;28;20019;-64
2021/06/11 03:50:05;;;;;;;17.63;15.20;;;16.10;98.20;;;;;;4937561;29;20042;-65
2021/06/11 03:52:33;;;;;;;15.98;14.48;;;16.10;97.90;;;;;;4938443;29;20020;-75
2021/06/11 03:55:08;;;;;;;16.10;14.45;;;16.10;98.00;;;;;;4970564;28;20162;-79
2021/06/11 03:57:36;;;;;;;16.52;14.82;;;16.10;98.40;;;;;;4976842;28;20449;-64
2021/06/11 04:00:05;;;;;;;15.85;14.32;;;16.10;98.10;;;;;;4969828;28;20043;-66
2021/06/11 04:02:30;;;;;;;15.88;14.27;;;16.20;98.20;;;;;;4956689;29;20039;-71
2021/06/11 04:04:57;;;;;;;16.05;14.10;;;16.30;98.20;;;;;;4956947;29;20126;-66
2021/06/11 04:07:28;;;;;;;15.18;13.75;;;16.30;98.20;;;;;;4957315;29;20098;-67
2021/06/11 04:10:04;;;;;;;15.95;14.32;;;16.30;98.20;;;;;;4956500;29;20034;-63
2021/06/11 04:12:36;;;;;;;17.10;14.75;;;16.40;98.30;;;;;;4957255;29;20096;-63
2021/06/11 04:15:04;;;;;;;17.15;15.38;;;16.50;98.30;;;;;;4939388;29;20036;-65
2021/06/11 04:17:35;;;;;;;16.15;14.45;;;16.50;98.30;;;;;;4956633;29;20019;-64
2021/06/11 04:20:01;;;;;;;17.02;14.73;;;16.60;98.30;;;;;;4956905;29;20043;-71
2021/06/11 04:22:35;;;;;;;15.82;14.13;;;16.60;98.20;;;;;;4956822;29;20463;-64
2021/06/11 04:25:03;;;;;;;17.08;14.68;;;16.60;98.30;;;;;;4955945;29;20456;-63
2021/06/11 04:27:35;;;;;;;14.90;13.43;;;16.60;98.30;;;;;;4939737;29;20042;-70
2021/06/11 04:30:01;;;;;;;21.55;15.80;;;16.60;98.20;;;;;;4955359;29;20480;-64
2021/06/11 04:32:29;;;;;;;17.08;15.30;;;16.70;98.20;;;;;;4956848;29;20019;-66
2021/06/11 04:34:55;;;;;;;16.23;14.52;;;16.70;98.20;;;;;;4939306;29;20019;-66
2021/06/11 04:37:21;;;;;;;16.23;14.73;;;16.70;98.20;;;;;;4956501;29;20030;-70
2021/06/11 04:39:46;;;;;;;15.95;14.35;;;16.70;98.20;;;;;;4957334;29;20027;-71
2021/06/11 04:42:12;;;;;;;16.65;14.60;;;16.70;98.20;;;;;;4956796;29;20054;-73
2021/06/11 04:44:38;;;;;;;19.35;17.30;;;16.80;98.20;;;;;;4955782;29;20066;-64
2021/06/11 04:47:03;;;;;;;18.58;16.60;;;16.80;98.30;;;;;;4956184;28;20098;-71
2021/06/11 04:49:29;;;;;;;19.02;17.05;;;16.80;98.20;;;;;;4956398;29;20042;-68
2021/06/11 04:51:54;;;;;;;17.38;15.43;;;16.90;98.20;;;;;;4938456;29;20028;-71
2021/06/11 04:54:20;;;;;;;19.50;16.02;;;16.90;98.20;;;;;;4956153;29;20055;-69
2021/06/11 04:56:45;;;;;;;18.17;16.38;;;16.90;98.20;;;;;;4956181;29;20027;-67
2021/06/11 04:59:11;;;;;;;17.50;15.73;;;17.00;98.10;;;;;;4955737;29;20090;-67
2021/06/11 05:01:37;;;;;;;19.92;17.83;;;17.10;98.10;;;;;;4956450;29;20491;-64
2021/06/11 05:04:02;;;;;;;19.95;17.70;;;17.20;98.00;;;;;;4955913;29;20071;-70
2021/06/11 05:06:28;;;;;;;19.77;17.75;;;17.20;97.90;;;;;;4955237;29;20031;-64
2021/06/11 05:08:53;;;;;;;20.48;18.38;;;17.30;97.90;;;;;;4955776;29;20031;-67
2021/06/11 05:11:19;;;;;;;19.73;17.50;;;17.30;97.80;;;;;;4956139;29;20023;-63
2021/06/11 05:13:45;;;;;;;20.70;17.85;;;17.30;97.80;;;;;;4955026;29;20024;-67
2021/06/11 05:16:10;;;;;;;21.63;17.27;;;17.40;97.70;;;;;;4955664;29;20047;-64
2021/06/11 05:18:36;;;;;;;19.00;17.00;;;17.40;97.70;;;;;;4955988;29;20023;-64
2021/06/11 05:21:02;;;;;;;22.33;19.17;;;17.50;97.60;;;;;;4955146;29;20024;-64
2021/06/11 05:23:28;;;;;;;21.52;19.30;;;17.50;97.60;;;;;;4955745;29;20399;-68
2021/06/11 05:25:54;;;;;;;20.02;17.90;;;17.60;97.60;;;;;;4955482;29;20033;-64
2021/06/11 05:28:21;;;;;;;20.40;18.20;;;17.60;97.60;;;;;;4954998;29;20114;-65
2021/06/11 05:30:51;;;;;;;19.58;17.58;;;17.70;97.50;;;;;;4955183;29;20028;-77
2021/06/11 05:33:17;;;;;;;19.77;16.92;;;17.70;97.50;;;;;;4955472;29;20019;-68
2021/06/11 05:35:43;;;;;;;18.98;17.05;;;17.80;97.50;;;;;;4955480;29;20077;-66
2021/06/11 05:38:08;;;;;;;19.60;17.58;;;17.80;97.40;;;;;;4955106;29;20480;-66
2021/06/11 05:40:35;;;;;;;18.13;16.33;;;17.80;97.40;;;;;;4954493;29;20035;-69
2021/06/11 05:43:01;;;;;;;19.48;16.15;;;17.90;97.40;;;;;;4955401;29;20020;-65
2021/06/11 05:45:27;;;;;;;18.92;17.02;;;18.00;97.30;;;;;;4955470;29;20396;-80
2021/06/11 05:47:53;;;;;;;18.45;16.35;;;18.00;97.20;;;;;;4954738;29;20034;-65
2021/06/11 05:50:19;;;;;;;18.83;16.52;;;18.00;97.10;;;;;;4955433;29;20027;-65
2021/06/11 05:52:45;;;;;;;18.48;16.38;;;18.10;97.00;;;;;;4955064;29;20031;-64
2021/06/11 05:55:11;;;;;;;18.23;16.35;;;18.10;96.80;;;;;;4954321;29;20023;-64
2021/06/11 05:57:36;;;;;;;19.48;17.05;;;18.10;96.80;;;;;;4954599;28;20093;-64
2021/06/11 06:00:03;;;;;;;18.95;17.02;;;18.10;96.90;;;;;;4954502;28;20023;-68
2021/06/11 06:02:29;;;;;;;18.90;16.00;;;18.20;96.80;;;;;;4954692;29;20039;-66
2021/06/11 06:04:54;;;;;;;21.48;17.30;;;18.20;96.80;;;;;;4954682;29;20035;-70
2021/06/11 06:07:20;;;;;;;17.30;14.73;;;18.30;96.70;;;;;;4955112;29;20020;-65
2021/06/11 06:09:46;;;;;;;17.80;15.90;;;18.40;96.60;;;;;;4936949;29;20031;-69
2021/06/11 06:12:11;;;;;;;18.30;16.33;;;18.40;96.40;;;;;;4954970;29;20059;-66
2021/06/11 06:14:37;;;;;;;18.45;15.70;;;18.40;96.40;;;;;;4952582;29;20575;-73
2021/06/11 06:17:04;;;;;;;16.98;14.88;;;18.40;96.40;;;;;;4941184;29;20023;-68
2021/06/11 06:19:30;;;;;;;17.48;14.43;;;18.50;96.40;;;;;;4949068;28;20023;-64
2021/06/11 06:21:55;;;;;;;15.80;14.18;;;18.50;96.30;;;;;;4945532;28;20049;-69
2021/06/11 06:24:21;;;;;;;14.77;13.15;;;18.50;96.30;;;;;;4948901;28;20147;-69
2021/06/11 06:26:47;;;;;;;14.85;13.35;;;18.50;96.30;;;;;;4953321;28;20046;-68
2021/06/11 06:29:12;;;;;;;17.45;13.02;;;18.60;96.30;;;;;;4946864;28;20122;-65
2021/06/11 06:31:38;;;;;;;13.52;11.85;;;18.70;96.20;;;;;;4966441;28;20030;-64
2021/06/11 06:34:04;;;;;;;14.05;12.60;;;18.70;96.00;;;;;;4954400;29;20034;-70
2021/06/11 06:36:30;;;;;;;13.98;11.32;;;18.90;95.90;;;;;;4964878;28;20059;-70
2021/06/11 06:39:01;;;;;;;13.25;10.40;;;19.00;95.60;;;;;;4973922;28;20034;-69
2021/06/11 06:41:26;;;;;;;13.63;9.93;;;19.10;95.30;;;;;;4956642;28;20025;-64
2021/06/11 06:43:52;;;;;;;11.40;10.05;;;19.20;94.80;;;;;;4972837;28;20042;-68
2021/06/11 06:46:24;;;;;;;12.57;9.57;;;19.30;94.40;;;;;;4973588;28;20491;-66
2021/06/11 06:48:50;;;;;;;12.02;10.30;;;19.40;94.30;;;;;;4971332;28;20046;-68
2021/06/11 06:51:18;;;;;;;11.52;10.32;;;19.50;94.10;;;;;;4961889;28;20042;-68
2021/06/11 06:53:44;;;;;;;14.13;10.27;;;19.60;94.10;;;;;;4925488;29;20111;-67
2021/06/11 06:56:09;;;;;;;10.93;9.60;;;19.70;93.80;;;;;;4946027;28;20023;-67
2021/06/11 06:58:38;;;;;;;11.43;10.23;;;19.80;93.70;;;;;;4956675;28;20134;-63
2021/06/11 07:01:04;;;;;;;10.13;9.13;;;19.90;93.60;;;;;;4953156;29;20028;-64
2021/06/11 07:03:31;;;;;;;11.20;9.43;;;20.00;93.30;;;;;;4953308;29;20035;-70
2021/06/11 07:05:57;;;;;;;12.25;10.90;;;20.10;93.10;;;;;;4953586;29;20023;-65
2021/06/11 07:08:25;;;;;;;12.00;10.65;;;20.20;92.90;;;;;;4953555;29;20480;-69
2021/06/11 07:10:51;;;;;;;11.18;9.90;;;20.20;92.70;;;;;;4935194;29;20027;-65
2021/06/11 07:13:17;;;;;;;11.80;10.57;;;20.30;92.70;;;;;;4952971;29;20034;-66
2021/06/11 07:15:42;;;;;;;11.70;9.82;;;20.40;92.30;;;;;;4953176;29;20051;-65
2021/06/11 07:18:08;;;;;;;11.70;9.25;;;20.40;92.10;;;;;;4953195;29;20047;-67
2021/06/11 07:20:34;;;;;;;11.18;9.57;;;20.50;91.90;;;;;;4953756;29;20062;-65
2021/06/11 07:22:59;;;;;;;11.73;10.23;;;20.50;91.80;;;;;;4953763;29;20024;-66
2021/06/11 07:25:25;;;;;;;12.60;10.27;;;20.60;91.70;;;;;;4952423;29;20050;-63
2021/06/11 07:27:50;;;;;;;14.90;12.13;;;20.70;91.80;;;;;;4953348;29;20353;-64
2021/06/11 07:30:17;;;;;;;14.63;12.55;;;20.70;91.70;;;;;;4953247;29;20023;-64
2021/06/11 07:32:43;;;;;;;14.65;13.15;;;20.70;91.60;;;;;;4953435;29;20064;-64
2021/06/11 07:35:12;;;;;;;18.55;13.30;;;20.80;91.60;;;;;;4953555;29;20027;-66
2021/06/11 07:37:38;;;;;;;16.98;13.57;;;20.80;91.50;;;;;;4954107;29;20043;-67
2021/06/11 07:40:06;;;;;;;20.38;15.23;;;20.90;91.40;;;;;;4952638;29;20034;-64
2021/06/11 07:42:31;;;;;;;18.23;16.33;;;20.90;91.50;;;;;;4953345;29;20114;-63
2021/06/11 07:44:57;;;;;;;18.83;15.70;;;21.00;91.40;;;;;;4953055;29;20126;-64
2021/06/11 07:47:23;;;;;;;18.40;16.13;;;21.10;91.30;;;;;;4953358;29;20110;-66
2021/06/11 07:49:48;;;;;;;18.55;16.63;;;21.10;91.10;;;;;;4953058;29;20023;-78
2021/06/11 07:52:14;;;;;;;17.85;15.95;;;21.20;90.90;;;;;;4952956;29;20043;-83
2021/06/11 07:54:39;;;;;;;18.48;16.45;;;21.20;90.70;;;;;;4953743;29;20388;-73
2021/06/11 07:57:05;;;;;;;20.33;15.48;;;21.20;90.60;;;;;;4952872;29;20428;-76
2021/06/11 07:59:31;;;;;;;20.20;15.60;;;21.30;90.60;;;;;;4952766;29;20045;-72
2021/06/11 08:01:56;;;;;;;20.20;15.82;;;21.30;90.50;;;;;;4953034;29;20392;-77
2021/06/11 08:04:22;;;;;;;16.27;14.40;;;21.30;90.50;;;;;;4935894;29;20090;-65
2021/06/11 08:06:48;;;;;;;17.33;14.77;;;21.30;90.30;;;;;;4953545;29;20027;-68
2021/06/11 08:09:14;;;;;;;18.48;14.55;;;21.30;90.30;;;;;;4953388;29;20046;-73
2021/06/11 08:11:40;;;;;;;17.83;14.27;;;21.30;90.20;;;;;;4953485;29;20497;-80
2021/06/11 08:14:06;;;;;;;14.68;13.07;;;21.30;90.50;;;;;;4952440;29;20028;-67
2021/06/11 08:16:31;;;;;;;16.20;13.77;;;21.40;90.40;;;;;;4953443;29;20051;-79
2021/06/11 08:18:57;;;;;;;17.17;14.20;;;21.50;90.00;;;;;;4953325;29;20027;-77
2021/06/11 08:21:22;;;;;;;15.75;13.30;;;21.50;89.90;;;;;;4956024;28;20476;-67
2021/06/11 08:23:48;;;;;;;15.32;13.65;;;21.50;89.80;;;;;;4956112;29;20090;-78
2021/06/11 08:26:14;;;;;;;17.23;13.07;;;21.60;90.00;;;;;;4956490;29;20038;-70
2021/06/11 08:28:40;;;;;;;14.02;11.88;;;21.60;89.70;;;;;;4938768;29;20030;-66
2021/06/11 08:31:06;;;;;;;14.88;11.40;;;21.70;89.40;;;;;;4956889;29;20040;-67
2021/06/11 08:33:32;;;;;;;12.55;10.65;;;21.70;88.90;;;;;;4957393;29;20162;-69
2021/06/11 08:35:58;;;;;;;15.60;11.45;;;21.70;89.10;;;;;;4956503;29;20094;-69
2021/06/11 08:38:24;;;;;;;13.18;11.85;;;21.80;89.30;;;;;;4956413;29;20121;-68
2021/06/11 08:40:50;;;;;;;12.80;10.90;;;21.90;88.50;;;;;;4956544;29;20030;-67
2021/06/11 08:43:17;;;;;;;12.60;10.98;;;21.90;88.60;;;;;;4955059;29;20102;-68
2021/06/11 08:45:44;;;;;;;12.88;10.20;;;22.00;88.00;;;;;;4955392;29;20042;-65
2021/06/11 08:48:10;;;;;;;11.98;10.75;;;22.00;87.70;;;;;;4956251;29;20539;-66
2021/06/11 08:50:36;;;;;;;11.93;10.57;;;22.00;87.00;;;;;;4955548;29;20027;-66
2021/06/11 08:53:05;;;;;;;12.93;11.05;;;22.00;87.60;;;;;;4956251;29;20030;-69
2021/06/11 08:55:32;;;;;;;11.25;10.07;;;22.00;87.70;;;;;;4955152;29;20081;-64
2021/06/11 08:57:58;;;;;;;10.70;9.57;;;22.10;87.20;;;;;;4955331;29;20460;-65
2021/06/11 09:00:24;;;;;;;12.23;10.90;;;22.10;86.00;;;;;;4955729;29;20031;-71
2021/06/11 09:03:09;;;;;;;12.43;10.07;;;22.20;86.40;;;;;;4955097;29;20042;-67
2021/06/11 09:05:36;;;;;;;12.43;10.27;;;22.30;86.90;;;;;;4956014;29;20043;-70
2021/06/11 09:08:20;;;;;;;11.75;10.55;;;22.40;86.50;;;;;;4955987;29;20019;-67
2021/06/11 09:10:48;;;;;;;13.75;11.90;;;22.50;86.00;;;;;;4955154;29;20114;-65
2021/06/11 09:13:25;;;;;;;12.70;11.35;;;22.60;85.60;;;;;;4938834;29;20038;-75
2021/06/11 09:16:04;;;;;;;13.52;12.13;;;22.70;84.60;;;;;;4955698;29;20048;-63
2021/06/11 09:18:30;;;;;;;14.77;12.90;;;22.70;85.30;;;;;;4955142;29;20067;-75
2021/06/11 09:20:56;;;;;;;13.48;11.98;;;22.70;85.10;;;;;;4955545;29;20051;-64
2021/06/11 09:23:21;;;;;;;14.93;13.32;;;22.70;85.00;;;;;;4955827;29;20148;-69
2021/06/11 09:25:49;;;;;;;14.13;11.57;;;22.80;84.70;;;;;;4937637;29;20027;-64
2021/06/11 09:28:21;;;;;;;15.25;13.07;;;22.90;84.80;;;;;;4955815;29;20111;-68
2021/06/11 09:30:50;;;;;;;15.73;13.20;;;23.10;84.20;;;;;;4954438;29;20391;-66
2021/06/11 09:33:18;;;;;;;13.40;11.15;;;23.10;84.20;;;;;;4954811;28;20027;-66
2021/06/11 09:35:55;;;;;;;12.95;11.45;;;23.30;83.40;;;;;;4936990;29;20031;-67
2021/06/11 09:38:29;;;;;;;14.30;12.32;;;23.40;83.00;;;;;;4955120;29;20106;-65
2021/06/11 09:40:58;;;;;;;11.65;10.43;;;23.60;82.30;;;;;;4955325;29;20025;-66
2021/06/11 09:43:25;;;;;;;16.35;11.10;;;23.90;81.70;;;;;;4955436;29;20034;-72
2021/06/11 09:46:12;;;;;;;14.15;11.75;;;24.10;81.20;;;;;;4937199;29;20029;-66
2021/06/11 09:48:44;;;;;;;15.73;12.05;;;24.30;79.50;;;;;;4955369;29;20019;-66
2021/06/11 09:51:15;;;;;;;15.70;12.77;;;24.60;79.20;;;;;;4955383;29;20023;-66
2021/06/11 09:53:40;;;;;;;15.67;13.93;;;24.70;78.10;;;;;;4954694;29;20039;-70
2021/06/11 09:56:17;;;;;;;13.23;11.25;;;24.70;78.00;;;;;;4954975;29;20023;-67
2021/06/11 09:58:42;;;;;;;13.63;9.95;;;24.60;77.60;;;;;;4954676;29;20058;-74
2021/06/11 10:01:11;;;;;;;13.43;10.75;;;24.40;77.80;;;;;;4937538;29;20035;-68
2021/06/11 10:03:39;;;;;;;14.15;12.70;;;24.30;78.00;;;;;;4955122;29;20027;-65
2021/06/11 10:06:07;;;;;;;13.95;12.30;;;24.10;77.90;;;;;;4954028;29;20047;-70
2021/06/11 10:08:33;;;;;;;13.75;12.32;;;24.10;79.20;;;;;;4955057;29;20030;-70
2021/06/11 10:11:04;;;;;;;12.60;11.27;;;24.10;78.90;;;;;;4937980;29;20481;-66
2021/06/11 10:13:30;;;;;;;13.30;12.00;;;24.10;78.80;;;;;;4954238;29;20074;-73
2021/06/11 10:15:58;;;;;;;12.65;11.43;;;24.30;79.00;;;;;;4954403;29;20047;-65
2021/06/11 10:18:24;;;;;;;15.23;12.50;;;24.40;78.60;;;;;;4954728;29;20054;-66
2021/06/11 10:20:50;;;;;;;16.42;13.35;;;24.50;77.90;;;;;;4936830;29;20058;-65
2021/06/11 10:23:19;;;;;;;13.13;11.25;;;24.60;78.00;;;;;;4954214;29;20102;-67
2021/06/11 10:25:46;;;;;;;11.52;10.07;;;24.70;78.20;;;;;;4918147;29;20086;-74
2021/06/11 10:28:18;;;;;;;13.85;10.75;;;24.70;76.50;;;;;;4952348;29;20510;-68
2021/06/11 10:30:44;;;;;;;12.32;10.82;;;24.70;76.40;;;;;;4947229;29;20472;-66
2021/06/11 10:33:10;;;;;;;14.40;11.77;;;24.70;77.30;;;;;;4954229;29;20024;-68
2021/06/11 10:35:40;;;;;;;17.13;11.40;;;24.80;76.90;;;;;;4953889;29;20020;-70
2021/06/11 10:38:28;;;;;;;13.32;11.60;;;25.00;76.50;;;;;;4954294;29;20162;-65
2021/06/11 10:40:56;;;;;;;14.32;12.82;;;25.20;76.00;;;;;;4954044;29;20088;-66
2021/06/11 10:43:23;;;;;;;16.50;12.57;;;25.30;75.90;;;;;;4954237;29;20028;-71
2021/06/11 10:45:51;;;;;;;15.13;11.00;;;25.40;75.20;;;;;;4954011;28;20035;-88
2021/06/11 10:48:16;;;;;;;13.85;11.45;;;25.50;74.70;;;;;;4953906;29;20027;-75
2021/06/11 10:50:43;;;;;;;12.65;11.35;;;25.60;73.70;;;;;;4954227;29;20034;-69
2021/06/11 10:53:28;;;;;;;11.73;10.00;;;25.70;73.70;;;;;;4954351;29;20023;-71
2021/06/11 10:56:18;;;;;;;13.05;10.95;;;25.80;73.10;;;;;;4936317;29;20031;-68
2021/06/11 10:58:45;;;;;;;10.52;9.45;;;25.90;72.60;;;;;;4953271;29;20015;-72
2021/06/11 11:01:21;;;;;;;13.07;11.48;;;25.90;72.50;;;;;;4954160;29;20039;-68
2021/06/11 11:03:46;;;;;;;12.32;10.48;;;26.00;71.40;;;;;;4952608;29;20047;-68
2021/06/11 11:06:33;;;;;;;11.23;9.98;;;26.10;71.50;;;;;;4953758;29;20122;-66
2021/06/11 11:09:02;;;;;;;11.02;9.90;;;26.20;72.30;;;;;;4953726;29;20106;-65
2021/06/11 11:11:30;;;;;;;11.15;9.30;;;26.30;71.70;;;;;;4953661;29;20031;-64
2021/06/11 11:13:56;;;;;;;11.15;10.05;;;26.50;71.80;;;;;;4953606;29;20473;-67
2021/06/11 11:16:23;;;;;;;10.23;8.68;;;26.70;70.60;;;;;;4936037;29;20051;-64
2021/06/11 11:18:49;;;;;;;9.70;8.48;;;26.70;70.20;;;;;;4953250;29;20058;-65
2021/06/11 11:21:29;;;;;;;11.30;10.10;;;26.70;70.60;;;;;;4953782;29;20081;-64
2021/06/11 11:24:02;;;;;;;12.57;10.57;;;26.70;68.80;;;;;;4952503;29;20135;-75
2021/06/11 11:26:50;;;;;;;11.80;10.60;;;26.50;68.90;;;;;;4953749;29;20329;-79
2021/06/11 11:29:18;;;;;;;11.35;10.00;;;26.40;69.60;;;;;;4935399;29;20027;-79
2021/06/11 11:31:46;;;;;;;9.27;8.38;;;26.50;70.20;;;;;;4933832;29;20016;-74
2021/06/11 11:34:12;;;;;;;11.52;9.40;;;26.60;70.00;;;;;;4941149;29;20039;-82
2021/06/11 11:36:38;;;;;;;11.35;10.15;;;26.80;69.20;;;;;;4954418;29;20051;-87
2021/06/11 11:39:09;;;;;;;12.93;10.40;;;26.90;68.20;;;;;;4952740;29;20027;-79
2021/06/11 11:41:36;;;;;;;12.88;10.68;;;26.90;68.70;;;;;;4953608;29;20119;-65
2021/06/11 11:44:02;;;;;;;9.95;8.52;;;27.00;69.30;;;;;;4953258;29;20556;-74
2021/06/11 11:46:28;;;;;;;9.63;8.73;;;27.00;69.10;;;;;;4952590;29;20031;-76
2021/06/11 11:48:53;;;;;;;8.10;7.30;;;27.10;69.40;;;;;;4953747;29;20153;-74
2021/06/11 11:51:19;;;;;;;9.90;7.15;;;27.20;68.50;;;;;;4952564;29;20027;-71
2021/06/11 11:53:45;;;;;;;8.73;7.68;;;27.20;67.20;;;;;;4953563;29;20016;-82
2021/06/11 11:56:12;;;;;;;7.97;7.25;;;27.20;67.40;;;;;;4953635;28;20034;-63
2021/06/11 11:58:38;;;;;;;12.13;6.55;;;27.20;66.50;;;;;;4956326;29;20026;-63
2021/06/11 12:01:03;;;;;;;8.45;6.95;;;27.20;66.40;;;;;;4957060;29;20379;-62
2021/06/11 12:03:30;;;;;;;8.40;7.57;;;27.20;66.60;;;;;;4956831;29;20059;-63
2021/06/11 12:05:55;;;;;;;8.07;7.28;;;27.20;66.30;;;;;;4956144;29;20424;-62
2021/06/11 12:08:21;;;;;;;13.10;7.45;;;27.30;66.10;;;;;;4956872;29;20487;-62
2021/06/11 12:10:46;;;;;;;9.10;7.93;;;27.40;66.90;;;;;;4956437;29;20094;-63
2021/06/11 12:13:12;;;;;;;9.38;8.05;;;27.50;66.10;;;;;;4956306;29;20019;-62
2021/06/11 12:15:38;;;;;;;7.85;6.95;;;27.70;65.80;;;;;;4956773;29;20106;-64
2021/06/11 12:18:03;;;;;;;10.95;7.53;;;27.80;65.80;;;;;;4956230;29;20148;-65
2021/06/11 12:20:33;;;;;;;8.57;7.30;;;27.90;65.00;;;;;;4955856;29;20015;-65
2021/06/11 12:23:02;;;;;;;9.25;8.15;;;27.90;64.70;;;;;;4956491;29;20054;-64
2021/06/11 12:25:28;;;;;;;10.68;9.57;;;27.90;64.70;;;;;;4956554;29;20039;-64
2021/06/11 12:27:54;;;;;;;9.70;8.55;;;27.80;64.00;;;;;;4938653;29;20020;-65
2021/06/11 12:30:20;;;;;;;10.20;6.72;;;27.70;64.60;;;;;;4939260;29;20030;-65
2021/06/11 12:32:46;;;;;;;7.68;6.88;;;27.70;65.80;;;;;;4956097;29;20078;-69
2021/06/11 12:35:12;;;;;;;10.23;8.13;;;28.00;64.90;;;;;;4955930;29;20031;-80
2021/06/11 12:37:39;;;;;;;8.10;7.30;;;28.20;63.90;;;;;;4939111;29;20118;-84